sensor_id;sensor_type;location;lat;lon;timestamp;pressure;altitude;pressure_sealevel;temperature;humidity
37170;BME280;23062;13.952;100.608;2023-05-03T00:04:38;1011.34;;;31.06;71.97
37170;BME280;23062;13.952;100.608;2023-05-03T00:09:10;1011.41;;;31.09;72.01
37170;BME280;23062;13.952;100.608;2023-05-03T00:13:43;1011.51;;;31.11;71.82
37170;BME280;23062;13.952;100.608;2023-05-03T00:18:08;1011.64;;;31.08;71.79
37170;BME280;23062;13.952;100.608;2023-05-03T00:22:34;1011.79;;;31.08;71.62
37170;BME280;23062;13.952;100.608;2023-05-03T00:27:04;1011.88;;;31.14;71.43
37170;BME280;23062;13.952;100.608;2023-05-03T00:31:31;1011.97;;;31.14;71.47
37170;BME280;23062;13.952;100.608;2023-05-03T00:35:58;1012.01;;;31.16;71.35
37170;BME280;23062;13.952;100.608;2023-05-03T00:40:26;1012.20;;;31.27;71.12
37170;BME280;23062;13.952;100.608;2023-05-03T00:44:53;1012.28;;;31.41;70.84
37170;BME280;23062;13.952;100.608;2023-05-03T00:49:19;1012.41;;;31.45;70.10
37170;BME280;23062;13.952;100.608;2023-05-03T00:53:46;1012.51;;;31.51;70.52
37170;BME280;23062;13.952;100.608;2023-05-03T00:58:12;1012.57;;;31.52;69.88
37170;BME280;23062;13.952;100.608;2023-05-03T01:02:38;1012.64;;;31.57;70.36
37170;BME280;23062;13.952;100.608;2023-05-03T01:07:34;1012.70;;;31.61;69.54
37170;BME280;23062;13.952;100.608;2023-05-03T01:12:13;1012.79;;;31.69;69.68
37170;BME280;23062;13.952;100.608;2023-05-03T01:16:48;1012.81;;;31.68;69.41
37170;BME280;23062;13.952;100.608;2023-05-03T01:21:15;1012.93;;;31.76;68.68
37170;BME280;23062;13.952;100.608;2023-05-03T01:25:41;1013.06;;;31.77;68.04
37170;BME280;23062;13.952;100.608;2023-05-03T01:30:11;1013.13;;;31.84;68.35
37170;BME280;23062;13.952;100.608;2023-05-03T01:34:50;1013.20;;;31.89;68.18
37170;BME280;23062;13.952;100.608;2023-05-03T01:39:20;1013.21;;;31.91;67.80
37170;BME280;23062;13.952;100.608;2023-05-03T01:43:46;1013.22;;;31.94;68.06
37170;BME280;23062;13.952;100.608;2023-05-03T01:48:18;1013.15;;;31.98;67.62
37170;BME280;23062;13.952;100.608;2023-05-03T01:52:45;1013.16;;;32.00;67.21
37170;BME280;23062;13.952;100.608;2023-05-03T02:01:40;1013.26;;;32.07;66.73
37170;BME280;23062;13.952;100.608;2023-05-03T02:06:06;1013.21;;;32.06;67.00
37170;BME280;23062;13.952;100.608;2023-05-03T02:14:58;1013.23;;;32.13;66.66
37170;BME280;23062;13.952;100.608;2023-05-03T02:19:27;1013.21;;;32.14;66.27
37170;BME280;23062;13.952;100.608;2023-05-03T02:23:52;1013.29;;;32.19;66.42
37170;BME280;23062;13.952;100.608;2023-05-03T02:28:19;1013.27;;;32.18;66.05
37170;BME280;23062;13.952;100.608;2023-05-03T02:32:46;1013.26;;;32.22;65.68
37170;BME280;23062;13.952;100.608;2023-05-03T02:37:15;1013.29;;;32.20;65.06
37170;BME280;23062;13.952;100.608;2023-05-03T02:41:39;1013.22;;;32.24;64.87
37170;BME280;23062;13.952;100.608;2023-05-03T02:46:05;1013.26;;;32.27;64.79
37170;BME280;23062;13.952;100.608;2023-05-03T02:50:31;1013.35;;;32.28;64.54
37170;BME280;23062;13.952;100.608;2023-05-03T02:55:00;1013.35;;;32.30;64.11
37170;BME280;23062;13.952;100.608;2023-05-03T02:59:26;1013.30;;;32.31;64.16
37170;BME280;23062;13.952;100.608;2023-05-03T03:03:52;1013.26;;;32.32;63.91
37170;BME280;23062;13.952;100.608;2023-05-03T03:08:18;1013.23;;;32.31;62.94
37170;BME280;23062;13.952;100.608;2023-05-03T03:12:48;1013.15;;;32.32;62.04
37170;BME280;23062;13.952;100.608;2023-05-03T03:17:14;1013.12;;;32.33;61.31
37170;BME280;23062;13.952;100.608;2023-05-03T03:21:40;1013.07;;;32.35;60.96
37170;BME280;23062;13.952;100.608;2023-05-03T03:26:11;1013.13;;;32.39;60.95
37170;BME280;23062;13.952;100.608;2023-05-03T03:30:37;1013.11;;;32.39;60.91
37170;BME280;23062;13.952;100.608;2023-05-03T03:35:05;1013.08;;;32.40;60.49
37170;BME280;23062;13.952;100.608;2023-05-03T03:39:32;1013.06;;;32.41;60.23
37170;BME280;23062;13.952;100.608;2023-05-03T03:43:59;1012.98;;;32.43;59.83
37170;BME280;23062;13.952;100.608;2023-05-03T03:48:26;1012.94;;;32.45;59.64
37170;BME280;23062;13.952;100.608;2023-05-03T03:52:52;1012.87;;;32.47;59.68
37170;BME280;23062;13.952;100.608;2023-05-03T03:57:18;1012.70;;;32.48;59.09
37170;BME280;23062;13.952;100.608;2023-05-03T04:01:46;1012.61;;;32.47;58.69
37170;BME280;23062;13.952;100.608;2023-05-03T04:06:12;1012.47;;;32.51;58.34
37170;BME280;23062;13.952;100.608;2023-05-03T04:10:39;1012.46;;;32.51;58.25
37170;BME280;23062;13.952;100.608;2023-05-03T04:15:07;1012.37;;;32.53;57.91
37170;BME280;23062;13.952;100.608;2023-05-03T04:19:35;1012.33;;;32.57;57.78
37170;BME280;23062;13.952;100.608;2023-05-03T04:24:03;1012.22;;;32.59;57.31
37170;BME280;23062;13.952;100.608;2023-05-03T04:37:40;1011.94;;;32.66;57.47
37170;BME280;23062;13.952;100.608;2023-05-03T04:42:11;1011.91;;;32.69;57.66
37170;BME280;23062;13.952;100.608;2023-05-03T04:46:38;1011.80;;;32.70;57.67
37170;BME280;23062;13.952;100.608;2023-05-03T04:51:05;1011.74;;;32.71;57.39
37170;BME280;23062;13.952;100.608;2023-05-03T04:55:32;1011.69;;;32.72;57.26
37170;BME280;23062;13.952;100.608;2023-05-03T04:59:59;1011.56;;;32.76;57.00
37170;BME280;23062;13.952;100.608;2023-05-03T05:04:32;1011.46;;;32.76;56.46
37170;BME280;23062;13.952;100.608;2023-05-03T05:09:02;1011.27;;;32.74;56.02
37170;BME280;23062;13.952;100.608;2023-05-03T05:13:29;1011.13;;;32.64;56.45
37170;BME280;23062;13.952;100.608;2023-05-03T05:17:56;1010.98;;;32.65;56.17
37170;BME280;23062;13.952;100.608;2023-05-03T05:22:26;1010.93;;;32.73;55.76
37170;BME280;23062;13.952;100.608;2023-05-03T05:26:52;1010.79;;;32.77;55.76
37170;BME280;23062;13.952;100.608;2023-05-03T05:31:20;1010.68;;;32.89;53.96
37170;BME280;23062;13.952;100.608;2023-05-03T05:35:51;1010.56;;;32.92;54.45
37170;BME280;23062;13.952;100.608;2023-05-03T05:40:18;1010.43;;;32.94;54.18
37170;BME280;23062;13.952;100.608;2023-05-03T05:44:45;1010.34;;;32.94;53.75
37170;BME280;23062;13.952;100.608;2023-05-03T05:49:12;1010.22;;;32.96;53.98
37170;BME280;23062;13.952;100.608;2023-05-03T05:53:39;1010.14;;;33.05;53.26
37170;BME280;23062;13.952;100.608;2023-05-03T05:58:06;1010.07;;;33.06;53.91
37170;BME280;23062;13.952;100.608;2023-05-03T06:02:36;1009.97;;;33.05;53.73
37170;BME280;23062;13.952;100.608;2023-05-03T06:07:09;1009.86;;;33.08;53.95
37170;BME280;23062;13.952;100.608;2023-05-03T06:11:35;1009.84;;;33.09;54.13
37170;BME280;23062;13.952;100.608;2023-05-03T06:16:03;1009.79;;;33.06;54.32
37170;BME280;23062;13.952;100.608;2023-05-03T06:20:31;1009.67;;;33.11;53.89
37170;BME280;23062;13.952;100.608;2023-05-03T06:24:57;1009.52;;;33.07;54.15
37170;BME280;23062;13.952;100.608;2023-05-03T06:29:24;1009.43;;;33.07;54.32
37170;BME280;23062;13.952;100.608;2023-05-03T06:33:54;1009.28;;;33.09;54.14
37170;BME280;23062;13.952;100.608;2023-05-03T06:38:20;1009.09;;;33.11;53.20
37170;BME280;23062;13.952;100.608;2023-05-03T06:42:47;1008.83;;;33.12;53.65
37170;BME280;23062;13.952;100.608;2023-05-03T06:51:51;1008.59;;;33.18;53.85
37170;BME280;23062;13.952;100.608;2023-05-03T06:56:17;1008.46;;;33.15;53.94
37170;BME280;23062;13.952;100.608;2023-05-03T07:00:44;1008.35;;;33.15;53.78
37170;BME280;23062;13.952;100.608;2023-05-03T07:05:10;1008.26;;;33.19;53.80
37170;BME280;23062;13.952;100.608;2023-05-03T07:09:36;1008.15;;;33.22;53.48
37170;BME280;23062;13.952;100.608;2023-05-03T07:14:05;1008.10;;;33.30;52.61
37170;BME280;23062;13.952;100.608;2023-05-03T07:18:35;1008.00;;;33.37;52.25
37170;BME280;23062;13.952;100.608;2023-05-03T07:23:04;1007.95;;;33.31;52.62
37170;BME280;23062;13.952;100.608;2023-05-03T07:27:32;1007.81;;;33.30;53.02
37170;BME280;23062;13.952;100.608;2023-05-03T07:31:59;1007.76;;;33.35;52.89
37170;BME280;23062;13.952;100.608;2023-05-03T07:36:28;1007.66;;;33.36;52.94
37170;BME280;23062;13.952;100.608;2023-05-03T07:40:56;1007.46;;;33.38;52.94
37170;BME280;23062;13.952;100.608;2023-05-03T07:45:22;1007.35;;;33.43;52.76
37170;BME280;23062;13.952;100.608;2023-05-03T07:49:48;1007.27;;;33.49;52.56
37170;BME280;23062;13.952;100.608;2023-05-03T07:54:15;1007.26;;;33.49;52.55
37170;BME280;23062;13.952;100.608;2023-05-03T07:58:41;1007.23;;;33.45;52.83
37170;BME280;23062;13.952;100.608;2023-05-03T08:03:09;1007.15;;;33.41;53.02
37170;BME280;23062;13.952;100.608;2023-05-03T08:07:35;1007.13;;;33.44;52.96
37170;BME280;23062;13.952;100.608;2023-05-03T08:12:02;1006.97;;;33.47;52.95
37170;BME280;23062;13.952;100.608;2023-05-03T08:16:28;1006.90;;;33.46;53.01
37170;BME280;23062;13.952;100.608;2023-05-03T08:20:54;1006.83;;;33.48;52.91
37170;BME280;23062;13.952;100.608;2023-05-03T08:25:24;1006.81;;;33.46;53.05
37170;BME280;23062;13.952;100.608;2023-05-03T08:29:55;1006.78;;;33.47;52.88
37170;BME280;23062;13.952;100.608;2023-05-03T08:34:22;1006.68;;;33.47;52.78
37170;BME280;23062;13.952;100.608;2023-05-03T08:38:50;1006.64;;;33.52;52.93
37170;BME280;23062;13.952;100.608;2023-05-03T08:43:19;1006.63;;;33.57;53.12
37170;BME280;23062;13.952;100.608;2023-05-03T08:47:51;1006.69;;;33.57;53.43
37170;BME280;23062;13.952;100.608;2023-05-03T08:52:15;1006.68;;;33.58;53.81
37170;BME280;23062;13.952;100.608;2023-05-03T08:56:43;1006.62;;;33.59;54.01
37170;BME280;23062;13.952;100.608;2023-05-03T09:01:11;1006.57;;;33.59;54.26
37170;BME280;23062;13.952;100.608;2023-05-03T09:05:38;1006.52;;;33.63;54.61
37170;BME280;23062;13.952;100.608;2023-05-03T09:10:23;1006.58;;;33.61;55.09
37170;BME280;23062;13.952;100.608;2023-05-03T09:14:54;1006.45;;;33.66;55.39
37170;BME280;23062;13.952;100.608;2023-05-03T09:19:20;1006.44;;;33.67;55.41
37170;BME280;23062;13.952;100.608;2023-05-03T09:23:49;1006.58;;;33.66;55.87
37170;BME280;23062;13.952;100.608;2023-05-03T09:28:17;1006.49;;;33.62;55.99
37170;BME280;23062;13.952;100.608;2023-05-03T09:32:50;1006.51;;;33.63;56.04
37170;BME280;23062;13.952;100.608;2023-05-03T09:37:16;1006.51;;;33.63;56.11
37170;BME280;23062;13.952;100.608;2023-05-03T09:41:51;1006.55;;;33.63;56.05
37170;BME280;23062;13.952;100.608;2023-05-03T09:46:19;1006.53;;;33.62;55.95
37170;BME280;23062;13.952;100.608;2023-05-03T09:50:47;1006.53;;;33.61;55.84
37170;BME280;23062;13.952;100.608;2023-05-03T09:55:15;1006.58;;;33.58;55.93
37170;BME280;23062;13.952;100.608;2023-05-03T09:59:41;1006.62;;;33.59;56.04
37170;BME280;23062;13.952;100.608;2023-05-03T10:04:15;1006.74;;;33.59;55.73
37170;BME280;23062;13.952;100.608;2023-05-03T10:08:45;1006.71;;;33.57;55.82
37170;BME280;23062;13.952;100.608;2023-05-03T10:13:10;1006.63;;;33.58;55.44
37170;BME280;23062;13.952;100.608;2023-05-03T10:17:46;1006.70;;;33.55;55.56
37170;BME280;23062;13.952;100.608;2023-05-03T10:22:17;1006.76;;;33.55;56.19
37170;BME280;23062;13.952;100.608;2023-05-03T10:26:50;1006.84;;;33.51;56.82
37170;BME280;23062;13.952;100.608;2023-05-03T10:31:46;1006.87;;;33.47;57.39
37170;BME280;23062;13.952;100.608;2023-05-03T10:36:15;1006.89;;;33.46;57.55
37170;BME280;23062;13.952;100.608;2023-05-03T10:40:43;1007.03;;;33.44;57.21
37170;BME280;23062;13.952;100.608;2023-05-03T10:45:26;1007.16;;;33.43;56.98
37170;BME280;23062;13.952;100.608;2023-05-03T10:54:44;1007.25;;;33.40;57.27
37170;BME280;23062;13.952;100.608;2023-05-03T10:59:10;1007.30;;;33.33;57.49
37170;BME280;23062;13.952;100.608;2023-05-03T11:04:05;1007.34;;;33.30;57.24
37170;BME280;23062;13.952;100.608;2023-05-03T11:08:34;1007.53;;;33.33;57.21
37170;BME280;23062;13.952;100.608;2023-05-03T11:13:04;1007.48;;;33.26;57.31
37170;BME280;23062;13.952;100.608;2023-05-03T11:17:30;1007.33;;;33.30;57.04
37170;BME280;23062;13.952;100.608;2023-05-03T11:21:58;1007.29;;;33.26;56.65
37170;BME280;23062;13.952;100.608;2023-05-03T11:26:38;1007.34;;;33.27;56.74
37170;BME280;23062;13.952;100.608;2023-05-03T11:31:04;1007.53;;;33.23;56.66
37170;BME280;23062;13.952;100.608;2023-05-03T11:35:33;1007.54;;;33.21;56.85
37170;BME280;23062;13.952;100.608;2023-05-03T11:39:59;1007.57;;;33.22;56.97
37170;BME280;23062;13.952;100.608;2023-05-03T11:44:27;1007.54;;;33.18;57.04
37170;BME280;23062;13.952;100.608;2023-05-03T11:48:53;1007.69;;;33.18;57.14
37170;BME280;23062;13.952;100.608;2023-05-03T11:53:22;1007.68;;;33.20;57.29
37170;BME280;23062;13.952;100.608;2023-05-03T11:57:48;1007.68;;;33.19;57.36
37170;BME280;23062;13.952;100.608;2023-05-03T12:02:14;1007.78;;;33.19;57.36
37170;BME280;23062;13.952;100.608;2023-05-03T12:06:42;1007.91;;;33.14;57.08
37170;BME280;23062;13.952;100.608;2023-05-03T12:11:10;1007.97;;;33.09;56.68
37170;BME280;23062;13.952;100.608;2023-05-03T12:15:37;1007.85;;;33.08;56.59
37170;BME280;23062;13.952;100.608;2023-05-03T12:20:23;1007.87;;;33.10;56.59
37170;BME280;23062;13.952;100.608;2023-05-03T12:24:50;1007.85;;;33.06;56.13
37170;BME280;23062;13.952;100.608;2023-05-03T12:29:16;1007.79;;;33.03;55.64
37170;BME280;23062;13.952;100.608;2023-05-03T12:33:42;1007.81;;;32.99;55.34
37170;BME280;23062;13.952;100.608;2023-05-03T12:38:08;1007.77;;;32.99;55.51
37170;BME280;23062;13.952;100.608;2023-05-03T12:42:34;1007.77;;;33.00;55.46
37170;BME280;23062;13.952;100.608;2023-05-03T12:47:00;1007.81;;;32.99;55.66
37170;BME280;23062;13.952;100.608;2023-05-03T12:51:26;1007.88;;;32.97;56.02
37170;BME280;23062;13.952;100.608;2023-05-03T12:55:52;1007.90;;;32.98;56.11
37170;BME280;23062;13.952;100.608;2023-05-03T13:00:19;1007.83;;;32.96;56.27
37170;BME280;23062;13.952;100.608;2023-05-03T13:04:48;1007.85;;;32.96;56.00
37170;BME280;23062;13.952;100.608;2023-05-03T13:09:21;1007.96;;;32.94;56.10
37170;BME280;23062;13.952;100.608;2023-05-03T13:13:43;1008.09;;;32.94;56.28
37170;BME280;23062;13.952;100.608;2023-05-03T13:18:20;1008.09;;;32.94;56.46
37170;BME280;23062;13.952;100.608;2023-05-03T13:22:47;1008.08;;;32.95;56.32
37170;BME280;23062;13.952;100.608;2023-05-03T13:27:15;1008.10;;;32.93;56.17
37170;BME280;23062;13.952;100.608;2023-05-03T13:31:43;1008.17;;;32.90;56.36
37170;BME280;23062;13.952;100.608;2023-05-03T13:36:11;1008.30;;;32.92;56.52
37170;BME280;23062;13.952;100.608;2023-05-03T13:40:45;1008.34;;;32.89;56.67
37170;BME280;23062;13.952;100.608;2023-05-03T13:45:18;1008.32;;;32.88;56.67
37170;BME280;23062;13.952;100.608;2023-05-03T13:49:45;1008.34;;;32.90;56.81
37170;BME280;23062;13.952;100.608;2023-05-03T13:54:18;1008.33;;;32.89;56.86
37170;BME280;23062;13.952;100.608;2023-05-03T13:58:46;1008.41;;;32.86;56.87
37170;BME280;23062;13.952;100.608;2023-05-03T14:03:26;1008.48;;;32.90;56.79
37170;BME280;23062;13.952;100.608;2023-05-03T14:07:52;1008.50;;;32.88;56.82
37170;BME280;23062;13.952;100.608;2023-05-03T14:12:26;1008.55;;;32.86;56.85
37170;BME280;23062;13.952;100.608;2023-05-03T14:16:53;1008.56;;;32.85;56.99
37170;BME280;23062;13.952;100.608;2023-05-03T14:21:28;1008.64;;;32.83;57.04
37170;BME280;23062;13.952;100.608;2023-05-03T14:26:04;1008.73;;;32.82;57.10
37170;BME280;23062;13.952;100.608;2023-05-03T14:30:27;1008.73;;;32.83;57.16
37170;BME280;23062;13.952;100.608;2023-05-03T14:34:53;1008.86;;;32.82;57.29
37170;BME280;23062;13.952;100.608;2023-05-03T14:39:20;1008.94;;;32.82;57.53
37170;BME280;23062;13.952;100.608;2023-05-03T14:43:55;1008.92;;;32.80;57.64
37170;BME280;23062;13.952;100.608;2023-05-03T14:48:18;1009.08;;;32.81;57.67
37170;BME280;23062;13.952;100.608;2023-05-03T14:52:49;1009.17;;;32.80;57.85
37170;BME280;23062;13.952;100.608;2023-05-03T14:57:17;1009.27;;;32.81;57.96
37170;BME280;23062;13.952;100.608;2023-05-03T15:01:47;1009.29;;;32.82;58.00
37170;BME280;23062;13.952;100.608;2023-05-03T15:06:21;1009.32;;;32.80;58.22
37170;BME280;23062;13.952;100.608;2023-05-03T15:10:45;1009.34;;;32.82;58.27
37170;BME280;23062;13.952;100.608;2023-05-03T15:15:16;1009.28;;;32.77;58.64
37170;BME280;23062;13.952;100.608;2023-05-03T15:19:46;1009.24;;;32.78;58.62
37170;BME280;23062;13.952;100.608;2023-05-03T15:24:10;1009.24;;;32.73;58.82
37170;BME280;23062;13.952;100.608;2023-05-03T15:28:39;1009.27;;;32.76;58.85
37170;BME280;23062;13.952;100.608;2023-05-03T15:33:10;1009.28;;;32.91;58.47
37170;BME280;23062;13.952;100.608;2023-05-03T15:37:41;1009.34;;;33.03;58.13
37170;BME280;23062;13.952;100.608;2023-05-03T15:42:13;1009.32;;;33.05;58.04
37170;BME280;23062;13.952;100.608;2023-05-03T15:46:37;1009.33;;;33.08;58.04
37170;BME280;23062;13.952;100.608;2023-05-03T15:51:04;1009.35;;;33.11;57.88
37170;BME280;23062;13.952;100.608;2023-05-03T15:55:31;1009.31;;;33.09;57.96
37170;BME280;23062;13.952;100.608;2023-05-03T15:59:58;1009.29;;;33.10;58.08
37170;BME280;23062;13.952;100.608;2023-05-03T16:04:25;1009.31;;;33.12;58.12
37170;BME280;23062;13.952;100.608;2023-05-03T16:08:53;1009.28;;;33.13;58.22
37170;BME280;23062;13.952;100.608;2023-05-03T16:13:19;1009.18;;;33.10;58.36
37170;BME280;23062;13.952;100.608;2023-05-03T16:17:50;1009.20;;;33.13;58.33
37170;BME280;23062;13.952;100.608;2023-05-03T16:22:17;1009.18;;;33.11;58.38
37170;BME280;23062;13.952;100.608;2023-05-03T16:26:44;1009.21;;;33.11;58.43
37170;BME280;23062;13.952;100.608;2023-05-03T16:31:13;1009.12;;;33.11;58.42
37170;BME280;23062;13.952;100.608;2023-05-03T16:35:46;1009.11;;;33.09;58.57
37170;BME280;23062;13.952;100.608;2023-05-03T16:40:19;1009.11;;;33.09;58.73
37170;BME280;23062;13.952;100.608;2023-05-03T16:44:46;1009.05;;;33.10;58.85
37170;BME280;23062;13.952;100.608;2023-05-03T16:49:12;1008.99;;;33.10;58.95
37170;BME280;23062;13.952;100.608;2023-05-03T16:53:38;1008.95;;;33.09;59.01
37170;BME280;23062;13.952;100.608;2023-05-03T16:58:04;1008.88;;;33.10;59.22
37170;BME280;23062;13.952;100.608;2023-05-03T17:02:37;1008.80;;;33.12;59.37
37170;BME280;23062;13.952;100.608;2023-05-03T17:06:59;1008.80;;;33.12;59.50
37170;BME280;23062;13.952;100.608;2023-05-03T17:11:31;1008.72;;;33.11;59.55
37170;BME280;23062;13.952;100.608;2023-05-03T17:16:02;1008.67;;;33.11;59.79
37170;BME280;23062;13.952;100.608;2023-05-03T17:20:34;1008.55;;;33.07;59.87
37170;BME280;23062;13.952;100.608;2023-05-03T17:25:00;1008.54;;;33.09;59.79
37170;BME280;23062;13.952;100.608;2023-05-03T17:29:26;1008.52;;;33.09;60.02
37170;BME280;23062;13.952;100.608;2023-05-03T17:33:52;1008.53;;;33.08;60.08
37170;BME280;23062;13.952;100.608;2023-05-03T17:38:18;1008.48;;;33.06;60.30
37170;BME280;23062;13.952;100.608;2023-05-03T17:42:45;1008.45;;;33.07;60.13
37170;BME280;23062;13.952;100.608;2023-05-03T17:47:14;1008.42;;;33.08;60.19
37170;BME280;23062;13.952;100.608;2023-05-03T17:51:41;1008.40;;;33.05;60.25
37170;BME280;23062;13.952;100.608;2023-05-03T17:56:16;1008.32;;;33.04;60.28
37170;BME280;23062;13.952;100.608;2023-05-03T18:00:42;1008.32;;;33.06;60.26
37170;BME280;23062;13.952;100.608;2023-05-03T18:05:09;1008.25;;;33.04;60.37
37170;BME280;23062;13.952;100.608;2023-05-03T18:09:36;1008.18;;;33.06;60.32
37170;BME280;23062;13.952;100.608;2023-05-03T18:14:01;1008.33;;;33.05;60.45
37170;BME280;23062;13.952;100.608;2023-05-03T18:18:28;1008.34;;;33.04;60.38
37170;BME280;23062;13.952;100.608;2023-05-03T18:22:55;1008.37;;;33.03;60.36
37170;BME280;23062;13.952;100.608;2023-05-03T18:27:23;1008.36;;;33.06;60.19
37170;BME280;23062;13.952;100.608;2023-05-03T18:31:48;1008.29;;;33.03;60.27
37170;BME280;23062;13.952;100.608;2023-05-03T18:36:26;1008.24;;;33.03;60.32
37170;BME280;23062;13.952;100.608;2023-05-03T18:40:48;1008.16;;;33.03;60.37
37170;BME280;23062;13.952;100.608;2023-05-03T18:45:14;1008.09;;;33.03;60.45
37170;BME280;23062;13.952;100.608;2023-05-03T18:49:40;1008.11;;;33.03;60.48
37170;BME280;23062;13.952;100.608;2023-05-03T18:54:11;1008.07;;;33.01;60.62
37170;BME280;23062;13.952;100.608;2023-05-03T18:58:37;1008.02;;;33.00;60.65
37170;BME280;23062;13.952;100.608;2023-05-03T19:03:02;1007.97;;;32.99;60.76
37170;BME280;23062;13.952;100.608;2023-05-03T19:07:30;1007.93;;;32.99;60.71
37170;BME280;23062;13.952;100.608;2023-05-03T19:11:56;1007.93;;;32.98;60.74
37170;BME280;23062;13.952;100.608;2023-05-03T19:16:22;1007.99;;;32.99;60.88
37170;BME280;23062;13.952;100.608;2023-05-03T19:20:50;1007.96;;;32.98;60.90
37170;BME280;23062;13.952;100.608;2023-05-03T19:25:17;1007.94;;;32.98;60.96
37170;BME280;23062;13.952;100.608;2023-05-03T19:29:43;1007.95;;;32.99;61.14
37170;BME280;23062;13.952;100.608;2023-05-03T19:34:09;1007.92;;;32.99;61.18
37170;BME280;23062;13.952;100.608;2023-05-03T19:38:36;1007.88;;;32.97;61.25
37170;BME280;23062;13.952;100.608;2023-05-03T19:43:09;1007.84;;;32.97;61.20
37170;BME280;23062;13.952;100.608;2023-05-03T19:47:33;1007.85;;;32.97;61.14
37170;BME280;23062;13.952;100.608;2023-05-03T19:51:59;1007.87;;;32.98;61.42
37170;BME280;23062;13.952;100.608;2023-05-03T19:56:26;1007.80;;;32.97;61.51
37170;BME280;23062;13.952;100.608;2023-05-03T20:00:52;1007.82;;;32.96;61.55
37170;BME280;23062;13.952;100.608;2023-05-03T20:05:20;1007.81;;;32.95;61.55
37170;BME280;23062;13.952;100.608;2023-05-03T20:09:53;1007.83;;;32.96;61.43
37170;BME280;23062;13.952;100.608;2023-05-03T20:14:22;1007.79;;;32.86;61.72
37170;BME280;23062;13.952;100.608;2023-05-03T20:19:01;1007.74;;;32.70;62.79
37170;BME280;23062;13.952;100.608;2023-05-03T20:23:24;1007.73;;;32.53;63.87
37170;BME280;23062;13.952;100.608;2023-05-03T20:27:50;1007.75;;;32.49;64.29
37170;BME280;23062;13.952;100.608;2023-05-03T20:32:18;1007.79;;;32.39;64.77
37170;BME280;23062;13.952;100.608;2023-05-03T20:36:54;1007.81;;;32.34;64.94
37170;BME280;23062;13.952;100.608;2023-05-03T20:41:20;1007.80;;;32.30;65.06
37170;BME280;23062;13.952;100.608;2023-05-03T20:45:46;1007.83;;;32.30;65.17
37170;BME280;23062;13.952;100.608;2023-05-03T20:50:12;1007.84;;;32.30;65.19
37170;BME280;23062;13.952;100.608;2023-05-03T20:54:38;1007.90;;;32.28;65.24
37170;BME280;23062;13.952;100.608;2023-05-03T20:59:04;1007.98;;;32.27;65.34
37170;BME280;23062;13.952;100.608;2023-05-03T21:03:31;1007.98;;;32.25;65.39
37170;BME280;23062;13.952;100.608;2023-05-03T21:12:29;1008.01;;;32.20;65.71
37170;BME280;23062;13.952;100.608;2023-05-03T21:16:59;1008.12;;;32.19;65.75
37170;BME280;23062;13.952;100.608;2023-05-03T21:21:26;1008.12;;;32.16;65.88
37170;BME280;23062;13.952;100.608;2023-05-03T21:25:52;1008.19;;;32.15;65.98
37170;BME280;23062;13.952;100.608;2023-05-03T21:30:21;1008.13;;;32.08;65.97
37170;BME280;23062;13.952;100.608;2023-05-03T21:39:17;1008.37;;;32.12;66.02
37170;BME280;23062;13.952;100.608;2023-05-03T21:43:47;1008.48;;;32.12;66.01
37170;BME280;23062;13.952;100.608;2023-05-03T21:48:12;1008.50;;;32.08;65.99
37170;BME280;23062;13.952;100.608;2023-05-03T21:52:38;1008.50;;;32.05;65.99
37170;BME280;23062;13.952;100.608;2023-05-03T21:57:07;1008.54;;;32.06;65.95
37170;BME280;23062;13.952;100.608;2023-05-03T22:01:35;1008.64;;;32.05;65.94
37170;BME280;23062;13.952;100.608;2023-05-03T22:06:03;1008.71;;;32.08;66.05
37170;BME280;23062;13.952;100.608;2023-05-03T22:10:35;1008.70;;;32.05;66.26
37170;BME280;23062;13.952;100.608;2023-05-03T22:15:02;1008.66;;;32.08;65.88
37170;BME280;23062;13.952;100.608;2023-05-03T22:19:29;1008.72;;;32.09;65.74
37170;BME280;23062;13.952;100.608;2023-05-03T22:23:54;1008.78;;;32.07;65.77
37170;BME280;23062;13.952;100.608;2023-05-03T22:28:26;1008.80;;;32.04;65.99
37170;BME280;23062;13.952;100.608;2023-05-03T22:32:55;1008.81;;;32.01;66.31
37170;BME280;23062;13.952;100.608;2023-05-03T22:37:21;1008.96;;;32.02;66.44
37170;BME280;23062;13.952;100.608;2023-05-03T22:41:47;1008.93;;;32.02;66.44
37170;BME280;23062;13.952;100.608;2023-05-03T22:46:18;1009.04;;;32.11;66.12
37170;BME280;23062;13.952;100.608;2023-05-03T22:50:51;1009.13;;;32.19;65.83
37170;BME280;23062;13.952;100.608;2023-05-03T22:55:17;1009.25;;;32.20;65.84
37170;BME280;23062;13.952;100.608;2023-05-03T22:59:44;1009.34;;;32.18;65.88
37170;BME280;23062;13.952;100.608;2023-05-03T23:04:13;1009.39;;;32.17;65.94
37170;BME280;23062;13.952;100.608;2023-05-03T23:08:38;1009.42;;;32.18;66.08
37170;BME280;23062;13.952;100.608;2023-05-03T23:13:04;1009.51;;;32.18;66.15
37170;BME280;23062;13.952;100.608;2023-05-03T23:17:30;1009.48;;;32.19;66.04
37170;BME280;23062;13.952;100.608;2023-05-03T23:21:56;1009.53;;;32.18;66.25
37170;BME280;23062;13.952;100.608;2023-05-03T23:26:22;1009.51;;;32.15;66.63
37170;BME280;23062;13.952;100.608;2023-05-03T23:30:49;1009.54;;;32.11;66.70
37170;BME280;23062;13.952;100.608;2023-05-03T23:35:17;1009.57;;;32.15;66.67
37170;BME280;23062;13.952;100.608;2023-05-03T23:39:44;1009.68;;;32.15;66.82
37170;BME280;23062;13.952;100.608;2023-05-03T23:44:11;1009.69;;;32.15;66.92
37170;BME280;23062;13.952;100.608;2023-05-03T23:48:37;1009.72;;;32.16;66.94
37170;BME280;23062;13.952;100.608;2023-05-03T23:53:06;1009.85;;;32.17;66.87
37170;BME280;23062;13.952;100.608;2023-05-03T23:57:35;1009.91;;;32.18;67.01
